Time;durP1;ratioP1;P1;durP2;ratioP2;P2;SDS_P1;SDS_P2;PMS_P1;PMS_P2;Temp;Humidity;BMP_temperature;BMP_pressure;BME280_temperature;BME280_humidity;BME280_pressure;Samples;Min_cycle;Max_cycle;Signal;HPM_P1;HPM_P2
2023/03/01 00:01:17;;;;;;;90.07;36.03;;;-1.80;99.90;;;;;;4700590;30;20215;-74
2023/03/01 00:03:45;;;;;;;87.00;35.53;;;-1.90;99.90;;;;;;4708988;30;20224;-73
2023/03/01 00:06:12;;;;;;;92.03;36.23;;;-2.00;99.90;;;;;;4684623;30;20213;-75
2023/03/01 00:08:39;;;;;;;86.87;35.70;;;-1.80;99.90;;;;;;4683904;30;20317;-73
2023/03/01 00:11:14;;;;;;;85.60;35.13;;;-2.00;99.90;;;;;;4683822;30;20282;-74
2023/03/01 00:13:42;;;;;;;88.50;33.67;;;-1.90;99.90;;;;;;4684999;30;20214;-75
2023/03/01 00:16:33;;;;;;;86.80;34.70;;;-1.90;99.90;;;;;;4683599;30;20245;-76
2023/03/01 00:19:00;;;;;;;87.47;34.23;;;-1.90;99.90;;;;;;4683610;30;20296;-75
2023/03/01 00:21:27;;;;;;;79.47;33.60;;;-2.00;99.90;;;;;;4684610;30;20642;-75
2023/03/01 00:23:55;;;;;;;79.27;33.07;;;-2.00;99.90;;;;;;4686604;30;20213;-76
2023/03/01 00:26:23;;;;;;;78.53;32.87;;;-1.90;99.90;;;;;;4700621;30;20222;-74
2023/03/01 00:28:51;;;;;;;78.63;32.40;;;-1.90;99.90;;;;;;4700656;30;20202;-75
2023/03/01 00:31:21;;;;;;;79.93;32.80;;;-2.00;99.90;;;;;;4687405;30;20343;-75
2023/03/01 00:33:51;;;;;;;76.03;32.23;;;-2.00;99.90;;;;;;4684673;30;20206;-75
2023/03/01 00:36:19;;;;;;;74.13;31.53;;;-2.00;99.90;;;;;;4690682;30;20249;-72
2023/03/01 00:38:46;;;;;;;85.13;33.30;;;-1.90;99.90;;;;;;4700577;30;20217;-74
2023/03/01 00:41:16;;;;;;;77.97;32.13;;;-2.00;99.90;;;;;;4686176;30;20205;-74
2023/03/01 00:43:43;;;;;;;75.53;31.53;;;-2.00;99.90;;;;;;4696321;30;20209;-72
2023/03/01 00:46:13;;;;;;;70.37;30.90;;;-2.00;99.90;;;;;;4703247;30;20665;-75
2023/03/01 00:48:41;;;;;;;69.37;30.73;;;-2.00;99.90;;;;;;4703362;30;20218;-74
2023/03/01 00:51:13;;;;;;;75.00;31.13;;;-2.10;99.90;;;;;;4718913;30;20661;-73
2023/03/01 00:53:41;;;;;;;71.87;30.70;;;-2.10;99.90;;;;;;4703063;30;20293;-71
2023/03/01 00:56:10;;;;;;;74.13;30.70;;;-2.00;99.90;;;;;;4718871;30;20228;-74
2023/03/01 00:58:37;;;;;;;76.43;29.63;;;-2.00;99.90;;;;;;4703244;30;20207;-74
2023/03/01 01:01:18;;;;;;;67.57;29.23;;;-2.00;99.90;;;;;;4718927;30;20216;-72
2023/03/01 01:03:51;;;;;;;71.37;28.43;;;-2.10;99.90;;;;;;4718531;30;20286;-71
2023/03/01 01:06:24;;;;;;;66.77;29.30;;;-2.10;99.90;;;;;;4718555;30;20290;-71
2023/03/01 01:08:51;;;;;;;67.47;29.03;;;-2.10;99.90;;;;;;4702634;30;20562;-73
2023/03/01 01:11:20;;;;;;;68.67;27.97;;;-2.10;99.90;;;;;;4702953;30;20749;-73
2023/03/01 01:13:47;;;;;;;74.27;29.77;;;-1.90;99.90;;;;;;4718749;30;20206;-73
2023/03/01 01:16:16;;;;;;;68.90;28.60;;;-1.90;99.90;;;;;;4702749;30;20238;-76
2023/03/01 01:18:44;;;;;;;67.63;28.43;;;-2.00;99.90;;;;;;4703090;30;20564;-76
2023/03/01 01:21:13;;;;;;;69.37;29.07;;;-2.00;99.90;;;;;;4702625;30;20713;-75
2023/03/01 01:23:41;;;;;;;71.20;28.87;;;-1.90;99.90;;;;;;4688393;30;20228;-74
2023/03/01 01:26:14;;;;;;;69.23;29.43;;;-1.90;99.90;;;;;;4717999;30;20207;-73
2023/03/01 01:28:42;;;;;;;75.07;29.57;;;-2.10;99.90;;;;;;4688760;30;20211;-74
2023/03/01 01:31:08;;;;;;;68.80;28.77;;;-2.10;99.90;;;;;;4718602;30;20211;-72
2023/03/01 01:33:37;;;;;;;70.33;29.10;;;-2.00;99.90;;;;;;4718624;30;20207;-75
2023/03/01 01:36:06;;;;;;;71.20;28.80;;;-2.00;99.90;;;;;;4702081;30;20348;-75
2023/03/01 01:38:33;;;;;;;69.73;29.43;;;-2.00;99.90;;;;;;4702436;30;20222;-72
2023/03/01 01:41:00;;;;;;;68.77;29.47;;;-2.10;99.90;;;;;;4702491;30;20203;-75
2023/03/01 01:43:33;;;;;;;71.87;28.63;;;-2.10;99.90;;;;;;4702466;30;20223;-74
2023/03/01 01:46:12;;;;;;;67.60;28.47;;;-2.10;99.90;;;;;;4717942;30;20676;-74
2023/03/01 01:48:44;;;;;;;66.60;28.93;;;-2.10;99.90;;;;;;4702306;30;20211;-74
2023/03/01 01:51:19;;;;;;;64.20;28.47;;;-2.10;99.90;;;;;;4716579;30;20212;-74
2023/03/01 01:53:51;;;;;;;67.13;28.73;;;-2.20;99.90;;;;;;4708773;30;20290;-73
2023/03/01 01:56:20;;;;;;;68.73;28.57;;;-2.20;99.90;;;;;;4693919;30;20336;-73
2023/03/01 01:58:48;;;;;;;70.67;27.90;;;-2.20;99.90;;;;;;4701318;30;20217;-74
2023/03/01 02:01:14;;;;;;;73.57;29.30;;;-2.20;99.90;;;;;;4702091;30;20212;-75
2023/03/01 02:03:44;;;;;;;71.07;28.37;;;-2.20;99.90;;;;;;4702050;30;20219;-73
2023/03/01 02:06:28;;;;;;;69.57;28.67;;;-2.20;99.90;;;;;;4687411;30;20231;-74
2023/03/01 02:09:01;;;;;;;73.47;27.40;;;-2.20;99.90;;;;;;4700286;30;20663;-74
2023/03/01 02:11:33;;;;;;;66.93;28.70;;;-2.20;99.90;;;;;;4684766;30;20515;-75
2023/03/01 02:14:00;;;;;;;67.80;28.87;;;-2.10;99.90;;;;;;4699139;30;20222;-74
2023/03/01 02:16:28;;;;;;;67.87;27.97;;;-2.10;99.90;;;;;;4684611;30;20588;-76
2023/03/01 02:18:56;;;;;;;70.03;28.43;;;-2.20;99.90;;;;;;4699511;30;20200;-75
2023/03/01 02:21:43;;;;;;;64.83;27.73;;;-2.30;99.90;;;;;;4684205;30;20304;-75
2023/03/01 02:24:28;;;;;;;64.70;26.87;;;-2.30;99.90;;;;;;4701746;30;20296;-75
2023/03/01 02:27:00;;;;;;;70.03;28.17;;;-2.30;99.90;;;;;;4717222;30;20227;-74
2023/03/01 02:29:28;;;;;;;70.27;27.40;;;-2.20;99.90;;;;;;4717482;30;20242;-72
2023/03/01 02:31:59;;;;;;;67.37;28.90;;;-2.20;99.90;;;;;;4717320;30;20235;-72
2023/03/01 02:34:28;;;;;;;69.13;28.77;;;-2.20;99.90;;;;;;4717277;30;20660;-71
2023/03/01 02:37:12;;;;;;;68.90;28.53;;;-2.20;99.90;;;;;;4716461;30;20255;-71
2023/03/01 02:39:53;;;;;;;74.77;28.93;;;-2.30;99.90;;;;;;4701326;30;20317;-71
2023/03/01 02:42:26;;;;;;;71.93;28.77;;;-2.30;99.90;;;;;;4701893;30;20557;-75
2023/03/01 02:44:53;;;;;;;73.17;29.67;;;-2.30;99.90;;;;;;4701583;30;20219;-74
2023/03/01 02:47:20;;;;;;;66.03;28.63;;;-2.30;99.90;;;;;;4701606;30;20573;-76
2023/03/01 02:49:47;;;;;;;69.20;27.47;;;-2.30;99.90;;;;;;4717208;30;20268;-74
2023/03/01 02:52:20;;;;;;;71.33;28.37;;;-2.40;99.90;;;;;;4701378;30;20221;-76
2023/03/01 02:55:05;;;;;;;63.70;27.67;;;-2.40;99.90;;;;;;4701322;30;20211;-72
2023/03/01 02:57:34;;;;;;;67.63;29.13;;;-2.40;99.90;;;;;;4701310;30;20716;-75
2023/03/01 03:00:09;;;;;;;70.80;29.20;;;-2.30;99.90;;;;;;4717186;30;20231;-75
2023/03/01 03:02:36;;;;;;;70.27;28.77;;;-2.30;99.90;;;;;;4701625;30;20246;-74
2023/03/01 03:05:12;;;;;;;68.57;28.80;;;-2.40;99.90;;;;;;4716887;30;20214;-74
2023/03/01 03:07:43;;;;;;;67.60;28.90;;;-2.30;99.90;;;;;;4701197;30;20269;-75
2023/03/01 03:10:20;;;;;;;69.87;29.37;;;-2.30;99.90;;;;;;4717279;30;20600;-73
2023/03/01 03:13:02;;;;;;;72.87;29.93;;;-2.40;99.90;;;;;;4701635;30;20225;-74
2023/03/01 03:15:31;;;;;;;72.30;29.07;;;-2.40;99.90;;;;;;4716444;30;20546;-74
2023/03/01 03:17:58;;;;;;;69.87;30.00;;;-2.40;99.90;;;;;;4697304;30;20228;-74
2023/03/01 03:20:27;;;;;;;65.47;27.70;;;-2.40;99.90;;;;;;4699136;30;20232;-74
2023/03/01 03:22:56;;;;;;;63.57;27.50;;;-2.30;99.90;;;;;;4683796;30;20240;-75
2023/03/01 03:25:24;;;;;;;66.00;27.07;;;-2.30;99.90;;;;;;4683638;30;20300;-74
2023/03/01 03:27:58;;;;;;;69.60;27.73;;;-2.40;99.90;;;;;;4684079;30;20211;-75
2023/03/01 03:30:29;;;;;;;68.30;27.47;;;-2.40;99.90;;;;;;4683295;30;20207;-74
2023/03/01 03:32:57;;;;;;;66.53;27.53;;;-2.40;99.90;;;;;;4683661;30;20317;-70
2023/03/01 03:35:32;;;;;;;66.10;26.17;;;-2.40;99.90;;;;;;4699138;30;20658;-70
2023/03/01 03:38:03;;;;;;;76.03;27.67;;;-2.40;99.90;;;;;;4683643;30;20252;-74
2023/03/01 03:40:37;;;;;;;65.37;26.93;;;-2.40;99.90;;;;;;4683601;30;20661;-75
2023/03/01 03:43:07;;;;;;;68.50;27.37;;;-2.40;99.90;;;;;;4683520;30;20272;-76
2023/03/01 03:45:35;;;;;;;70.50;27.43;;;-2.50;99.90;;;;;;4683585;30;20554;-75
2023/03/01 03:48:04;;;;;;;64.10;26.97;;;-2.50;99.90;;;;;;4683592;30;20219;-75
2023/03/01 03:50:33;;;;;;;68.37;28.53;;;-2.60;99.90;;;;;;4683398;30;20203;-75
2023/03/01 03:53:01;;;;;;;69.83;27.53;;;-2.60;99.90;;;;;;4683608;30;20704;-75
2023/03/01 03:55:30;;;;;;;69.83;28.10;;;-2.60;99.90;;;;;;4683379;30;20216;-74
2023/03/01 03:58:01;;;;;;;66.63;26.33;;;-2.50;99.90;;;;;;4683602;30;20856;-75
2023/03/01 04:00:28;;;;;;;64.23;26.60;;;-2.40;99.90;;;;;;4697782;30;20209;-75
2023/03/01 04:02:56;;;;;;;69.77;26.67;;;-2.30;99.90;;;;;;4699282;30;20215;-76
2023/03/01 04:05:23;;;;;;;70.73;27.90;;;-2.40;99.90;;;;;;4683114;30;20273;-73
2023/03/01 04:08:00;;;;;;;70.73;27.97;;;-2.40;99.90;;;;;;4683441;30;20217;-73
2023/03/01 04:10:52;;;;;;;60.57;27.03;;;-2.50;99.90;;;;;;4693278;30;20298;-74
2023/03/01 04:13:22;;;;;;;63.90;25.53;;;-2.50;99.90;;;;;;4701959;30;20620;-74
2023/03/01 04:15:53;;;;;;;63.40;25.87;;;-2.50;99.90;;;;;;4700372;30;20207;-74
2023/03/01 04:18:23;;;;;;;62.67;26.53;;;-2.50;99.90;;;;;;4700628;30;20236;-72
2023/03/01 04:20:59;;;;;;;67.27;26.10;;;-2.50;99.90;;;;;;4716051;30;20220;-73
2023/03/01 04:23:27;;;;;;;70.57;27.00;;;-2.40;99.90;;;;;;4699287;30;20220;-74
2023/03/01 04:25:59;;;;;;;69.37;26.63;;;-2.40;99.90;;;;;;4697730;30;20625;-75
2023/03/01 04:28:35;;;;;;;65.93;26.40;;;-2.40;99.90;;;;;;4697804;30;20721;-75
2023/03/01 04:31:15;;;;;;;72.73;27.53;;;-2.40;99.90;;;;;;4683751;30;20334;-74
2023/03/01 04:33:46;;;;;;;63.23;25.93;;;-2.40;99.90;;;;;;4683851;30;20273;-75
2023/03/01 04:36:19;;;;;;;66.83;26.37;;;-2.40;99.90;;;;;;4683048;30;20338;-76
2023/03/01 04:38:48;;;;;;;67.93;27.10;;;-2.40;99.90;;;;;;4683446;30;20232;-73
2023/03/01 04:41:20;;;;;;;59.87;25.83;;;-2.40;99.90;;;;;;4697482;30;20205;-75
2023/03/01 04:43:48;;;;;;;71.50;27.30;;;-2.40;99.90;;;;;;4687736;30;20227;-75
2023/03/01 04:46:18;;;;;;;68.13;26.13;;;-2.40;99.90;;;;;;4703442;30;20632;-75
2023/03/01 04:48:47;;;;;;;61.90;27.13;;;-2.30;99.90;;;;;;4719239;30;20302;-74
2023/03/01 04:51:14;;;;;;;64.90;26.10;;;-2.40;99.90;;;;;;4703452;30;20207;-76
2023/03/01 04:53:41;;;;;;;68.23;26.47;;;-2.40;99.90;;;;;;4719137;30;20250;-74
2023/03/01 04:56:09;;;;;;;64.23;25.93;;;-2.50;99.90;;;;;;4702822;30;20665;-73
2023/03/01 04:58:36;;;;;;;61.77;26.37;;;-2.40;99.90;;;;;;4718902;30;20644;-74
2023/03/01 05:01:14;;;;;;;65.70;26.57;;;-2.40;99.90;;;;;;4703189;30;20648;-74
2023/03/01 05:03:47;;;;;;;63.37;26.47;;;-2.40;99.90;;;;;;4703028;30;20297;-72
2023/03/01 05:06:15;;;;;;;68.87;26.53;;;-2.40;99.90;;;;;;4702857;30;20576;-75
2023/03/01 05:08:42;;;;;;;62.27;25.23;;;-2.30;99.90;;;;;;4703156;30;20200;-75
2023/03/01 05:11:10;;;;;;;65.67;26.57;;;-2.40;99.90;;;;;;4718836;30;20664;-75
2023/03/01 05:13:38;;;;;;;60.70;25.30;;;-2.40;99.90;;;;;;4703386;30;20221;-74
2023/03/01 05:16:06;;;;;;;57.63;24.20;;;-2.40;99.90;;;;;;4703087;30;20207;-73
2023/03/01 05:18:33;;;;;;;62.10;24.50;;;-2.40;99.90;;;;;;4718442;30;20236;-72
2023/03/01 05:21:18;;;;;;;56.43;24.27;;;-2.40;99.90;;;;;;4718685;30;20231;-74
2023/03/01 05:23:46;;;;;;;52.47;24.43;;;-2.40;99.90;;;;;;4718316;30;20284;-73
2023/03/01 05:26:14;;;;;;;61.27;24.47;;;-2.30;99.90;;;;;;4702738;30;20323;-74
2023/03/01 05:28:58;;;;;;;60.13;23.13;;;-2.30;99.90;;;;;;4686123;30;20664;-71
2023/03/01 05:31:26;;;;;;;54.83;24.07;;;-2.30;99.90;;;;;;4701009;30;20204;-70
2023/03/01 05:33:53;;;;;;;58.27;23.77;;;-2.30;99.90;;;;;;4700946;30;20724;-71
2023/03/01 05:36:20;;;;;;;58.37;23.87;;;-2.20;99.90;;;;;;4684604;30;20279;-72
2023/03/01 05:38:47;;;;;;;60.43;24.67;;;-2.20;99.90;;;;;;4700714;30;20539;-71
2023/03/01 05:41:15;;;;;;;53.47;24.27;;;-2.20;99.90;;;;;;4671143;30;20696;-72
2023/03/01 05:43:44;;;;;;;53.00;22.23;;;-2.20;99.90;;;;;;4685168;30;20219;-71
2023/03/01 05:46:13;;;;;;;59.97;23.17;;;-2.10;99.90;;;;;;4700572;30;20206;-71
2023/03/01 05:48:40;;;;;;;58.13;24.33;;;-2.10;99.90;;;;;;4685235;30;20266;-72
2023/03/01 05:51:08;;;;;;;66.73;24.57;;;-2.00;99.90;;;;;;4685194;30;20221;-72
2023/03/01 05:53:35;;;;;;;55.60;24.03;;;-2.00;99.90;;;;;;4684688;30;20213;-72
2023/03/01 05:56:05;;;;;;;55.33;23.17;;;-2.00;99.90;;;;;;4699504;30;20214;-72
2023/03/01 05:58:32;;;;;;;59.70;24.80;;;-1.90;99.90;;;;;;4684949;30;20236;-71
2023/03/01 06:00:59;;;;;;;57.23;23.57;;;-2.10;99.90;;;;;;4684865;30;20211;-71
2023/03/01 06:03:26;;;;;;;56.30;23.63;;;-1.90;99.90;;;;;;4684814;30;20219;-71
2023/03/01 06:05:57;;;;;;;51.90;23.03;;;-1.90;99.90;;;;;;4684543;30;20214;-71
2023/03/01 06:08:26;;;;;;;51.47;23.83;;;-1.80;99.90;;;;;;4685013;30;20691;-72
2023/03/01 06:10:53;;;;;;;61.00;25.23;;;-1.80;99.90;;;;;;4684737;30;20209;-70
2023/03/01 06:13:20;;;;;;;57.93;24.17;;;-1.70;99.90;;;;;;4684575;30;20657;-70
2023/03/01 06:15:47;;;;;;;58.63;24.43;;;-1.70;99.90;;;;;;4685033;30;20213;-71
2023/03/01 06:18:14;;;;;;;63.77;24.53;;;-1.70;99.90;;;;;;4688132;30;20329;-71
2023/03/01 06:20:41;;;;;;;58.60;25.27;;;-1.70;99.90;;;;;;4701767;30;20234;-74
2023/03/01 06:23:08;;;;;;;59.37;24.03;;;-1.60;99.90;;;;;;4701693;30;20220;-73
2023/03/01 06:25:37;;;;;;;64.07;24.87;;;-1.60;99.90;;;;;;4717274;30;20208;-72
2023/03/01 06:28:04;;;;;;;60.13;24.83;;;-1.50;99.90;;;;;;4716690;30;20240;-72
2023/03/01 06:30:31;;;;;;;57.63;24.27;;;-1.50;99.90;;;;;;4701574;30;20300;-73
2023/03/01 06:33:01;;;;;;;55.10;24.47;;;-1.50;99.90;;;;;;4700681;30;20220;-74
2023/03/01 06:35:29;;;;;;;58.97;24.97;;;-1.50;99.90;;;;;;4708947;30;20201;-73
2023/03/01 06:37:57;;;;;;;56.57;24.17;;;-1.40;99.90;;;;;;4691892;30;20760;-71
2023/03/01 06:40:25;;;;;;;60.17;25.20;;;-1.40;99.90;;;;;;4698094;30;20215;-70
2023/03/01 06:42:52;;;;;;;58.87;25.27;;;-1.30;99.90;;;;;;4708308;30;20210;-73
2023/03/01 06:45:20;;;;;;;58.27;25.40;;;-1.30;99.90;;;;;;4703374;30;20201;-72
2023/03/01 06:47:47;;;;;;;58.83;24.40;;;-1.20;99.90;;;;;;4708228;30;20680;-70
2023/03/01 06:50:15;;;;;;;61.13;25.03;;;-1.20;99.90;;;;;;4700907;30;20211;-71
2023/03/01 06:52:44;;;;;;;58.47;24.00;;;-1.20;99.90;;;;;;4697231;30;20217;-70
2023/03/01 06:55:12;;;;;;;60.20;24.73;;;-1.20;99.90;;;;;;4702616;30;20242;-73
2023/03/01 06:57:39;;;;;;;58.87;24.27;;;-1.10;99.90;;;;;;4696983;30;20267;-73
2023/03/01 07:00:07;;;;;;;59.87;24.87;;;-1.00;99.90;;;;;;4693345;30;20670;-73
2023/03/01 07:02:34;;;;;;;57.57;25.33;;;-1.00;99.90;;;;;;4698681;30;20214;-71
2023/03/01 07:05:08;;;;;;;55.43;24.20;;;-1.00;99.90;;;;;;4699747;30;20210;-70
2023/03/01 07:07:35;;;;;;;58.80;24.93;;;-1.00;99.90;;;;;;4683952;30;20580;-74
2023/03/01 07:10:02;;;;;;;57.10;25.67;;;-0.90;99.90;;;;;;4698989;30;20206;-72
2023/03/01 07:12:29;;;;;;;57.50;24.13;;;-0.90;99.90;;;;;;4715593;30;20224;-72
2023/03/01 07:14:56;;;;;;;57.00;25.23;;;-0.80;99.90;;;;;;4716475;30;20209;-75
2023/03/01 07:17:22;;;;;;;53.87;24.43;;;-0.70;99.90;;;;;;4715641;30;20658;-74
2023/03/01 07:19:49;;;;;;;55.20;23.83;;;-0.70;99.90;;;;;;4701005;30;20224;-72
2023/03/01 07:22:16;;;;;;;52.03;23.63;;;-0.60;99.90;;;;;;4697792;30;20229;-76
2023/03/01 07:24:43;;;;;;;54.47;24.47;;;-0.50;99.90;;;;;;4701358;30;20680;-83
2023/03/01 07:27:11;;;;;;;53.47;24.23;;;-0.40;99.90;;;;;;4714998;30;20249;-79
2023/03/01 07:29:38;;;;;;;58.97;24.70;;;-0.30;99.90;;;;;;4699660;30;20218;-75
2023/03/01 07:32:06;;;;;;;57.43;25.57;;;-0.30;99.90;;;;;;4702199;30;20195;-76
2023/03/01 07:34:33;;;;;;;57.87;24.77;;;-0.20;99.90;;;;;;4694945;30;20733;-77
2023/03/01 07:37:00;;;;;;;54.47;24.20;;;-0.20;99.90;;;;;;4683408;30;20242;-80
2023/03/01 07:39:27;;;;;;;54.43;23.73;;;-0.30;99.90;;;;;;4684177;30;20237;-83
2023/03/01 07:41:53;;;;;;;54.27;23.70;;;-0.10;99.90;;;;;;4700922;30;20228;-79
2023/03/01 07:44:20;;;;;;;52.93;24.07;;;0.00;99.90;;;;;;4707988;30;20210;-78
2023/03/01 07:46:47;;;;;;;49.03;21.97;;;0.00;99.90;;;;;;4701685;30;20194;-78
2023/03/01 07:49:14;;;;;;;49.87;22.53;;;0.20;99.90;;;;;;4694675;30;20241;-83
2023/03/01 07:51:43;;;;;;;47.57;22.17;;;0.30;99.90;;;;;;4701553;30;20215;-81
2023/03/01 07:54:10;;;;;;;47.73;22.73;;;0.40;99.90;;;;;;4705267;30;20208;-76
2023/03/01 07:56:36;;;;;;;47.50;21.63;;;0.40;99.90;;;;;;4698041;30;20218;-78
2023/03/01 07:59:03;;;;;;;49.40;22.20;;;0.50;99.90;;;;;;4683821;30;20602;-78
2023/03/01 08:01:30;;;;;;;50.60;22.97;;;0.50;99.90;;;;;;4683771;30;20211;-77
2023/03/01 08:03:57;;;;;;;48.57;21.57;;;0.70;99.90;;;;;;4684759;30;20246;-69
2023/03/01 08:06:24;;;;;;;49.10;22.87;;;0.80;99.90;;;;;;4691908;30;20200;-79
2023/03/01 08:08:50;;;;;;;46.10;22.67;;;0.90;99.90;;;;;;4701080;30;20222;-83
2023/03/01 08:11:17;;;;;;;47.47;21.90;;;1.00;99.90;;;;;;4699550;30;20203;-75
2023/03/01 08:13:47;;;;;;;45.40;21.47;;;1.10;99.90;;;;;;4684038;30;20249;-77
2023/03/01 08:16:17;;;;;;;47.30;21.67;;;1.10;99.90;;;;;;4706280;30;20199;-73
2023/03/01 08:18:44;;;;;;;46.80;19.83;;;1.30;99.90;;;;;;4714547;30;20643;-73
2023/03/01 08:21:13;;;;;;;48.17;21.13;;;1.70;99.90;;;;;;4716395;30;20686;-84
2023/03/01 08:23:41;;;;;;;44.07;20.90;;;2.40;99.90;;;;;;4688238;30;20212;-84
2023/03/01 08:26:18;;;;;;;43.37;20.70;;;2.90;99.90;;;;;;4687830;30;20654;-84
2023/03/01 08:28:46;;;;;;;45.57;20.10;;;3.70;99.90;;;;;;4688142;30;20671;-84
2023/03/01 08:31:21;;;;;;;45.07;20.13;;;4.00;99.90;;;;;;4687970;30;20532;-70
2023/03/01 08:33:54;;;;;;;42.43;19.03;;;4.30;99.90;;;;;;4686768;30;20197;-83
2023/03/01 08:36:27;;;;;;;36.77;18.33;;;4.50;99.90;;;;;;4683724;30;20276;-81
2023/03/01 08:38:55;;;;;;;31.90;17.23;;;4.80;99.90;;;;;;4684927;30;20228;-83
2023/03/01 08:41:22;;;;;;;36.00;16.70;;;4.70;99.90;;;;;;4699315;30;20310;-78
2023/03/01 08:43:49;;;;;;;36.93;18.27;;;4.90;99.90;;;;;;4701030;30;20656;-82
2023/03/01 08:46:16;;;;;;;36.87;17.87;;;5.20;99.90;;;;;;4702191;30;20297;-80
2023/03/01 08:48:43;;;;;;;39.20;17.93;;;5.30;99.90;;;;;;4702304;30;20214;-76
2023/03/01 08:51:16;;;;;;;39.50;17.50;;;5.20;99.90;;;;;;4701239;30;20199;-81
2023/03/01 08:53:46;;;;;;;37.10;16.13;;;5.30;99.90;;;;;;4701794;30;20650;-79
2023/03/01 08:56:14;;;;;;;32.10;15.63;;;5.10;99.90;;;;;;4700880;30;20205;-70
2023/03/01 08:58:45;;;;;;;33.80;15.10;;;5.20;99.90;;;;;;4701401;30;20226;-74
2023/03/01 09:01:18;;;;;;;31.03;14.07;;;5.40;99.90;;;;;;4703411;30;20214;-69
2023/03/01 09:03:46;;;;;;;29.80;15.30;;;5.50;99.90;;;;;;4695163;30;20678;-76
2023/03/01 09:06:13;;;;;;;28.23;14.47;;;5.30;99.90;;;;;;4695304;30;20270;-72
2023/03/01 09:08:43;;;;;;;31.90;14.63;;;5.50;99.90;;;;;;4706881;30;20230;-77
2023/03/01 09:11:12;;;;;;;28.30;14.50;;;5.60;99.90;;;;;;4691818;30;20204;-77
2023/03/01 09:13:39;;;;;;;31.40;14.83;;;6.10;99.90;;;;;;4688817;30;20310;-78
2023/03/01 09:16:11;;;;;;;32.33;14.53;;;6.60;99.90;;;;;;4693661;30;20204;-77
2023/03/01 09:18:39;;;;;;;31.90;15.07;;;6.70;99.90;;;;;;4694057;30;20289;-70
2023/03/01 09:21:10;;;;;;;29.10;13.77;;;6.40;99.90;;;;;;4687151;30;20642;-81
2023/03/01 09:23:40;;;;;;;32.40;15.60;;;6.60;99.90;;;;;;4690795;30;20215;-77
2023/03/01 09:26:09;;;;;;;29.80;14.77;;;6.50;99.90;;;;;;4685977;30;20215;-76
2023/03/01 09:28:36;;;;;;;27.37;14.87;;;6.80;99.90;;;;;;4701039;30;20289;-73
2023/03/01 09:31:04;;;;;;;32.40;16.03;;;7.00;99.90;;;;;;4699647;30;20222;-75
2023/03/01 09:33:32;;;;;;;31.73;15.50;;;7.30;99.90;;;;;;4698112;30;20571;-73
2023/03/01 09:36:02;;;;;;;31.77;15.23;;;7.50;99.90;;;;;;4693409;30;20600;-75
2023/03/01 09:38:29;;;;;;;30.30;14.93;;;7.80;99.90;;;;;;4698392;30;20270;-74
2023/03/01 09:40:57;;;;;;;30.57;14.83;;;7.60;99.90;;;;;;4700867;30;20207;-73
2023/03/01 09:43:30;;;;;;;28.73;14.27;;;7.50;99.90;;;;;;4699664;30;20219;-78
2023/03/01 09:46:11;;;;;;;35.80;14.27;;;7.50;99.90;;;;;;4699640;30;20222;-76
2023/03/01 09:49:02;;;;;;;30.63;14.03;;;7.70;99.90;;;;;;4699858;30;20296;-77
2023/03/01 09:51:35;;;;;;;26.67;14.07;;;7.50;99.90;;;;;;4699685;30;20219;-74
2023/03/01 09:54:04;;;;;;;29.83;15.30;;;7.60;99.90;;;;;;4699441;30;20302;-72
2023/03/01 09:56:57;;;;;;;32.80;14.73;;;7.50;99.90;;;;;;4699430;30;20215;-73
2023/03/01 09:59:49;;;;;;;29.97;14.53;;;7.50;99.90;;;;;;4699379;30;20235;-70
2023/03/01 10:02:22;;;;;;;29.70;14.60;;;7.30;99.90;;;;;;4695582;30;20321;-73
2023/03/01 10:04:52;;;;;;;28.83;14.70;;;7.40;99.90;;;;;;4697542;30;20212;-83
2023/03/01 10:07:38;;;;;;;28.50;13.47;;;7.40;99.90;;;;;;4681992;30;20335;-72
2023/03/01 10:10:08;;;;;;;25.17;13.40;;;7.80;99.90;;;;;;4697545;30;20207;-77
2023/03/01 10:12:40;;;;;;;26.60;13.77;;;8.10;99.90;;;;;;4694026;30;20644;-81
2023/03/01 10:15:12;;;;;;;27.00;12.97;;;8.50;99.90;;;;;;4690049;30;20717;-77
2023/03/01 10:17:56;;;;;;;27.37;13.40;;;9.10;99.90;;;;;;4695873;30;20208;-80
2023/03/01 10:20:26;;;;;;;25.57;13.77;;;9.20;99.90;;;;;;4692395;30;20204;-74
2023/03/01 10:22:55;;;;;;;26.23;13.17;;;9.00;99.90;;;;;;4676077;30;20212;-73
2023/03/01 10:25:49;;;;;;;24.73;13.03;;;9.00;99.90;;;;;;4689059;30;20266;-76
2023/03/01 10:28:30;;;;;;;24.40;12.00;;;8.80;99.90;;;;;;4683417;30;20296;-72
2023/03/01 10:30:58;;;;;;;24.37;12.20;;;8.90;99.90;;;;;;4688202;30;20213;-87
2023/03/01 10:33:35;;;;;;;24.57;12.17;;;9.00;99.90;;;;;;4688947;30;20278;-70
2023/03/01 10:36:02;;;;;;;25.13;12.83;;;9.20;99.90;;;;;;4689369;30;20247;-81
2023/03/01 10:38:46;;;;;;;28.73;12.73;;;9.80;99.90;;;;;;4693623;30;20260;-83
2023/03/01 10:41:13;;;;;;;21.83;11.93;;;10.30;99.90;;;;;;4683314;30;20227;-73
2023/03/01 10:43:57;;;;;;;23.43;13.23;;;10.80;99.90;;;;;;4695960;30;20223;-72
2023/03/01 10:46:31;;;;;;;23.77;13.20;;;10.90;99.90;;;;;;4696435;30;20212;-81
2023/03/01 10:49:21;;;;;;;25.77;13.87;;;11.30;99.90;;;;;;4682351;30;20232;-84
2023/03/01 10:51:51;;;;;;;29.67;14.23;;;11.50;99.90;;;;;;4695981;30;20644;-72
2023/03/01 10:54:28;;;;;;;29.47;14.77;;;11.20;99.90;;;;;;4681187;30;20287;-79
2023/03/01 10:57:01;;;;;;;26.67;13.80;;;11.50;99.90;;;;;;4690913;30;20196;-71
2023/03/01 10:59:33;;;;;;;27.73;13.37;;;11.80;99.90;;;;;;4697307;30;20219;-80
2023/03/01 11:02:09;;;;;;;26.90;13.10;;;11.50;99.90;;;;;;4710056;30;20214;-79
2023/03/01 11:05:23;;;;;;;22.27;12.67;;;11.90;98.90;;;;;;4695522;30;20303;-76
2023/03/01 11:07:59;;;;;;;25.50;12.90;;;12.20;98.10;;;;;;4705003;30;20784;-76
2023/03/01 11:10:29;;;;;;;23.30;12.47;;;12.40;97.80;;;;;;4698445;30;20213;-76
2023/03/01 11:13:29;;;;;;;25.50;12.83;;;12.80;95.90;;;;;;4697855;30;20218;-80
2023/03/01 11:16:14;;;;;;;24.37;12.83;;;12.90;95.40;;;;;;4699825;30;20219;-84
2023/03/01 11:18:41;;;;;;;28.43;13.03;;;12.70;94.30;;;;;;4676104;30;20248;-76
2023/03/01 11:21:15;;;;;;;22.70;11.90;;;13.00;93.80;;;;;;4691715;30;20331;-72
2023/03/01 11:23:44;;;;;;;23.93;11.77;;;13.10;93.40;;;;;;4676505;30;20208;-71
2023/03/01 11:26:14;;;;;;;22.30;11.83;;;12.60;94.40;;;;;;4694156;30;20593;-72
2023/03/01 11:28:48;;;;;;;18.07;10.00;;;13.20;93.30;;;;;;4691913;30;20210;-71
2023/03/01 11:31:16;;;;;;;18.07;10.57;;;12.60;93.10;;;;;;4681124;30;20336;-70
2023/03/01 11:33:53;;;;;;;21.17;10.10;;;12.70;94.80;;;;;;4694028;30;20278;-72
2023/03/01 11:36:31;;;;;;;18.60;10.50;;;13.30;93.80;;;;;;4679864;30;20251;-79
2023/03/01 11:39:21;;;;;;;17.97;10.77;;;13.70;92.00;;;;;;4686525;30;20245;-82
2023/03/01 11:42:04;;;;;;;18.10;9.97;;;14.00;90.00;;;;;;4697867;30;20257;-79
2023/03/01 11:44:49;;;;;;;17.43;9.77;;;13.70;91.30;;;;;;4675847;30;20226;-75
2023/03/01 11:47:28;;;;;;;20.73;10.63;;;14.20;90.30;;;;;;4697209;30;20667;-78
2023/03/01 11:50:03;;;;;;;17.87;9.33;;;14.60;87.70;;;;;;4680054;30;20215;-75
2023/03/01 11:52:49;;;;;;;20.33;9.90;;;14.80;86.70;;;;;;4683059;30;20237;-70
2023/03/01 11:55:16;;;;;;;16.03;9.30;;;14.50;85.30;;;;;;4684903;30;20765;-71
2023/03/01 11:58:11;;;;;;;17.63;9.37;;;15.30;82.70;;;;;;4693158;30;20300;-75
2023/03/01 12:01:14;;;;;;;15.97;9.90;;;15.40;82.80;;;;;;4691412;30;20263;-81
2023/03/01 12:03:56;;;;;;;19.00;9.97;;;15.80;79.60;;;;;;4705268;30;20227;-71
2023/03/01 12:06:49;;;;;;;16.90;10.00;;;16.20;76.90;;;;;;4696012;30;20312;-80
2023/03/01 12:09:25;;;;;;;16.40;9.40;;;17.30;73.60;;;;;;4690540;30;20670;-79
2023/03/01 12:11:55;;;;;;;18.67;9.63;;;17.80;70.60;;;;;;4706774;30;20206;-71
2023/03/01 12:14:38;;;;;;;16.50;10.03;;;18.30;68.70;;;;;;4704267;30;20200;-79
2023/03/01 12:17:27;;;;;;;18.53;9.87;;;17.40;66.70;;;;;;4684260;30;20216;-75
2023/03/01 12:20:27;;;;;;;15.70;9.80;;;18.10;68.60;;;;;;4680765;30;20243;-72
2023/03/01 12:23:22;;;;;;;15.67;9.67;;;19.00;64.30;;;;;;4702459;30;20592;-77
2023/03/01 12:26:12;;;;;;;15.83;9.97;;;19.10;63.60;;;;;;4695089;30;20303;-73
2023/03/01 12:29:18;;;;;;;17.03;10.20;;;18.50;63.10;;;;;;4697289;30;20267;-72
2023/03/01 12:32:23;;;;;;;16.53;9.70;;;18.40;62.00;;;;;;4706017;30;20204;-72
2023/03/01 12:35:31;;;;;;;17.70;9.50;;;18.80;63.00;;;;;;4655924;30;20675;-79
2023/03/01 12:38:16;;;;;;;15.03;9.20;;;19.40;61.90;;;;;;4668097;30;20287;-81
2023/03/01 12:40:53;;;;;;;14.87;9.27;;;20.20;59.30;;;;;;4666481;30;20310;-84
2023/03/01 12:43:43;;;;;;;15.30;9.23;;;20.20;58.40;;;;;;4666402;30;20220;-83
2023/03/01 12:46:18;;;;;;;14.50;9.50;;;19.80;59.00;;;;;;4665701;30;20314;-78
2023/03/01 12:48:55;;;;;;;17.97;9.47;;;19.20;59.20;;;;;;4652166;30;20219;-78
2023/03/01 12:51:29;;;;;;;16.10;9.43;;;19.50;59.60;;;;;;4666295;30;20227;-69
2023/03/01 12:54:01;;;;;;;13.33;9.07;;;19.50;58.80;;;;;;4651807;30;20215;-80
2023/03/01 12:56:31;;;;;;;19.20;10.20;;;19.40;59.20;;;;;;4654088;30;20709;-72